METAR Data
IDs: Format: Raw Decoded Include TAF

Data at: 0319 UTC 19 Oct 2021

PAFS 190301Z AUTO 00000KT 10SM CLR M03/M06 A2962 RMK AO2 SLP041 T10331056 56017 FZRANO
PAFS 190201Z AUTO 00000KT 10SM CLR M02/M06 A2962 RMK AO2 SLP042 T10221061 FZRANO
PAFS 190101Z AUTO 00000KT 10SM CLR M01/M06 A2964 RMK AO2 SLP047 T10061061 FZRANO
PAFS 190001Z AUTO 35003KT 10SM CLR 01/M07 A2965 RMK AO2 SLP051 T00061067 10017 21117 58013 FZRANO
PAFS 182301Z AUTO 00000KT 10SM CLR 01/M06 A2967 RMK AO2 SLP057 T00111061 FZRANO
PAFS 182201Z AUTO 00000KT 10SM CLR 00/M04 A2968 RMK AO2 SLP061 T00001044 FZRANO
PAFS 182101Z AUTO 00000KT 10SM CLR M02/M05 A2970 RMK AO2 SLP068 T10171050 51005 FZRANO
PAFS 182001Z AUTO 00000KT 10SM CLR M04/M07 A2971 RMK AO2 SLP071 T10441072 FZRANO
PAFS 181901Z AUTO 00000KT 10SM CLR M08/M09 A2971 RMK AO2 SLP071 T10831089 FZRANO
PAFS 181801Z AUTO 13003KT 9SM CLR M12/M13 A2970 RMK AO2 SLP068 T11171133 11067 21117 51009 FZRANO
PAFS 181701Z AUTO 00000KT 10SM CLR M12/M13 A2969 RMK AO2 SLP067 T11171128 FZRANO
PAFS 181601Z AUTO 00000KT 10SM CLR M11/M12 A2969 RMK AO2 SLP066 T11061117 FZRANO
PAFS 181501Z AUTO 00000KT 10SM CLR M09/M11 A2968 RMK AO2 SLP061 T10941106 51015 FZRANO
PAFS 181401Z AUTO 13003KT 10SM CLR M09/M10 A2967 RMK AO2 SLP058 T10891100 FZRANO
PAFS 181301Z AUTO 00000KT 10SM CLR M07/M08 A2965 RMK AO2 SLP052 T10721083 FZRANO
PAFS 181201Z AUTO 24003KT 10SM FEW120 M07/M08 A2964 RMK AO2 SLP046 T10721078 11028 21072 53016 FZRANO
PAFS 181101Z AUTO 23004KT 10SM CLR M06/M07 A2962 RMK AO2 SLP041 T10611072 FZRANO
PAFS 181001Z AUTO 00000KT 10SM CLR M05/M07 A2961 RMK AO2 SLP036 T10501067 FZRANO
PAFS 180901Z AUTO 00000KT 10SM BKN100 M05/M08 A2959 RMK AO2 SLP029 T10501078 410501050 53015 FZRANO
PAFS 180801Z AUTO 00000KT 10SM CLR M04/M07 A2957 RMK AO2 SLP024 T10391067 FZRANO
PAFS 180701Z AUTO 06005KT 10SM BKN110 M03/M06 A2956 RMK AO2 SLP019 T10281061 FZRANO
PAFS 180601Z AUTO 04012KT 10SM CLR M03/M06 A2954 RMK AO2 SLP014 T10331061 11006 21033 51020 FZRANO
PAFS 180501Z AUTO 05009KT 10SM CLR M03/M07 A2953 RMK AO2 SLP010 T10331067 FZRANO
PAFS 180401Z AUTO 05011KT 10SM CLR M03/M06 A2952 RMK AO2 SLP006 T10281061 FZRANO
PAFS 180301Z AUTO 04013KT 10SM CLR M02/M06 A2950 RMK AO2 SLP999 T10221061 52012 FZRANO
PAFS 180201Z AUTO 04013KT 10SM CLR M02/M06 A2947 RMK AO2 SLP989 T10171061 FZRANO
PAFS 180101Z AUTO 06011G23KT 10SM CLR M01/M06 A2946 RMK AO2 SLP984 T10111061 FZRANO
PAFS 180001Z AUTO 06009G17KT 10SM OVC095 M01/M06 A2945 RMK AO2 SLP981 T10111061 11011 21050 53006 FZRANO
PAFS 172301Z AUTO 06010KT 10SM FEW110 M02/M06 A2943 RMK AO2 SLP977 T10221056 FZRANO
PAFS 172201Z AUTO 06013G18KT 10SM CLR M02/M06 A2943 RMK AO2 SLP975 T10221056 FZRANO
PAFS 172101Z AUTO 06014G17KT 10SM BKN085 M03/M06 A2942 RMK AO2 SLP972 T10281056 52006 FZRANO
PAFS 172001Z AUTO 05011KT 10SM FEW095 M04/M06 A2942 RMK AO2 SLP971 T10391056 FZRANO
PAFS 171901Z AUTO 05012KT 10SM CLR M04/M06 A2941 RMK AO2 SLP970 T10441061 FZRANO
PAFS 171801Z AUTO 05009KT 10SM CLR M05/M07 A2940 RMK AO2 SLP966 T10501067 11044 21056 55005 FZRANO
PAFS 171701Z AUTO 06010KT 10SM CLR M05/M07 A2940 RMK AO2 SLP965 T10501067 FZRANO
PAFS 171601Z AUTO 06013G23KT 10SM FEW100 M04/M07 A2940 RMK AO2 SLP964 T10441067 FZRANO